createdAt,value
2023-02-02T01:29:28.155Z,99335.59
2023-02-02T01:32:00.022Z,99288.16
2023-02-02T01:34:29.307Z,99331.69
2023-02-02T01:36:58.769Z,99320.41
2023-02-02T01:39:28.312Z,99327.31
2023-02-02T01:41:58.616Z,99324.34
2023-02-02T01:45:06.196Z,99327.09
2023-02-02T01:47:39.636Z,99306.66
2023-02-02T01:50:11.491Z,99306.84
2023-02-02T01:52:44.127Z,99276.00
2023-02-02T01:55:15.957Z,99326.88
2023-02-02T01:57:48.100Z,99330.78
2023-02-02T02:00:25.014Z,99325.50
2023-02-02T02:02:57.829Z,99321.19
2023-02-02T02:05:34.545Z,99334.47
2023-02-02T02:08:09.623Z,99323.19
2023-02-02T02:10:39.993Z,99335.91
2023-02-02T02:13:09.461Z,99332.22
2023-02-02T02:16:02.736Z,99297.88
2023-02-02T02:18:41.188Z,99330.91
2023-02-02T02:22:06.193Z,99336.69
2023-02-02T02:25:17.171Z,99335.19
2023-02-02T02:28:31.575Z,99331.09
2023-02-02T02:31:26.939Z,99327.28
2023-02-02T02:34:02.804Z,99309.16
2023-02-02T02:36:41.911Z,99310.75
2023-02-02T02:39:17.340Z,99325.69
2023-02-02T02:41:51.469Z,99291.00
2023-02-02T02:44:23.164Z,99313.56
2023-02-02T02:46:52.750Z,99337.63
2023-02-02T02:49:23.704Z,99343.03
2023-02-02T02:51:54.675Z,99337.94
2023-02-02T02:54:40.877Z,99289.38
2023-02-02T02:57:28.625Z,99253.31
2023-02-02T03:00:06.207Z,99332.66
2023-02-02T03:02:43.641Z,99330.66
2023-02-02T03:05:25.194Z,99357.75
2023-02-02T03:08:04.251Z,99322.44
2023-02-02T03:10:34.111Z,99362.53
2023-02-02T03:13:08.736Z,99334.41
2023-02-02T03:15:38.062Z,99332.34
2023-02-02T03:18:07.546Z,99353.63
2023-02-02T03:20:38.496Z,99352.44
2023-02-02T03:23:07.679Z,99333.53
2023-02-02T03:25:37.153Z,99364.50
2023-02-02T03:28:07.568Z,99355.72
2023-02-02T03:30:37.359Z,99366.44
2023-02-02T03:33:07.370Z,99334.06
2023-02-02T03:35:36.755Z,99363.88
2023-02-02T03:38:07.166Z,99373.19
2023-02-02T03:40:36.507Z,99373.34
2023-02-02T03:43:05.648Z,99372.94
2023-02-02T03:45:35.567Z,99365.84
2023-02-02T03:48:05.961Z,99375.28
2023-02-02T03:50:35.799Z,99327.97
2023-02-02T03:53:06.476Z,99359.94
2023-02-02T03:55:35.584Z,99363.63
2023-02-02T03:58:04.774Z,99356.03
2023-02-02T04:00:34.201Z,99347.78
2023-02-02T04:03:03.708Z,99356.09
2023-02-02T04:05:33.302Z,99373.88
2023-02-02T04:08:02.501Z,99374.19
2023-02-02T04:10:33.221Z,99344.38
2023-02-02T04:13:02.512Z,99359.59
2023-02-02T04:15:31.628Z,99370.19
2023-02-02T04:18:00.707Z,99364.50
2023-02-02T04:20:30.082Z,99359.50
2023-02-02T04:22:59.067Z,99369.19
2023-02-02T04:25:28.372Z,99345.53
2023-02-02T04:27:58.955Z,99375.09
2023-02-02T04:30:28.077Z,99377.16
2023-02-02T04:32:57.311Z,99241.88
2023-02-02T04:35:26.687Z,99371.38
2023-02-02T04:37:56.655Z,99335.41
2023-02-02T04:40:26.259Z,99385.69
2023-02-02T04:42:55.328Z,99389.56
2023-02-02T04:45:26.350Z,99369.84
2023-02-02T04:47:55.590Z,99380.69
2023-02-02T04:50:24.815Z,99391.75
2023-02-02T04:52:54.157Z,99367.47
2023-02-02T04:55:24.077Z,99365.63
2023-02-02T04:57:53.804Z,99369.81
2023-02-02T05:00:23.163Z,99300.03
2023-02-02T05:02:54.260Z,99380.59
2023-02-02T05:05:23.757Z,99372.03
2023-02-02T05:07:53.365Z,99379.19
2023-02-02T05:10:22.928Z,99390.78
2023-02-02T05:12:54.053Z,99384.66
2023-02-02T05:15:24.434Z,99381.84
2023-02-02T05:17:55.084Z,99374.09
2023-02-02T05:20:24.276Z,99396.81
2023-02-02T05:22:53.577Z,99392.75
2023-02-02T05:25:23.173Z,99389.38
2023-02-02T05:27:52.692Z,99359.53
2023-02-02T05:30:21.766Z,99361.66
2023-02-02T05:32:51.080Z,99386.34
2023-02-02T05:35:21.584Z,99386.94
2023-02-02T05:37:51.156Z,99384.69
2023-02-02T05:40:20.637Z,99388.03
2023-02-02T05:42:50.498Z,99373.41
2023-02-02T05:45:19.717Z,99401.22
2023-02-02T05:47:48.848Z,99410.81
2023-02-02T05:50:18.497Z,99410.63
2023-02-02T05:53:01.568Z,99405.25
2023-02-02T05:55:30.876Z,99368.38
2023-02-02T05:58:00.137Z,99403.00
2023-02-02T06:00:31.172Z,99404.44
2023-02-02T06:03:00.996Z,99373.75
2023-02-02T06:05:30.220Z,99409.78
2023-02-02T06:08:01.702Z,99425.13
2023-02-02T06:10:31.652Z,99405.28
2023-02-02T06:13:04.950Z,99401.00
2023-02-02T06:15:35.267Z,99380.78
2023-02-02T06:18:06.791Z,99427.91
2023-02-02T06:20:36.204Z,99441.38
2023-02-02T06:23:07.390Z,99408.09
2023-02-02T06:25:40.993Z,99447.03
2023-02-02T06:28:10.575Z,99446.34
2023-02-02T06:30:39.847Z,99443.78
2023-02-02T06:33:09.632Z,99451.72
2023-02-02T06:35:39.319Z,99450.88
2023-02-02T06:38:11.041Z,99435.19
2023-02-02T06:40:40.818Z,99450.63
2023-02-02T06:43:11.636Z,99432.84
2023-02-02T06:45:41.767Z,99455.25
2023-02-02T06:48:16.384Z,99462.91
2023-02-02T06:50:45.837Z,99461.84
2023-02-02T06:53:22.249Z,99460.91
2023-02-02T06:55:55.892Z,99422.41
2023-02-02T06:58:25.248Z,99472.34
2023-02-02T07:00:55.926Z,99449.06
2023-02-02T07:03:25.126Z,99452.44
2023-02-02T07:05:55.996Z,99461.38
2023-02-02T07:08:26.907Z,99477.31
2023-02-02T07:11:14.206Z,99469.25
2023-02-02T07:13:46.204Z,99490.75
2023-02-02T07:16:16.771Z,99394.81
2023-02-02T07:18:48.322Z,99480.06
2023-02-02T07:21:20.526Z,99479.00
2023-02-02T10:17:42.192Z,99467.22
2023-02-02T10:20:23.470Z,99494.59
2023-02-02T10:22:58.413Z,99485.75
2023-02-02T10:25:30.885Z,99496.53
2023-02-02T10:28:07.661Z,99493.03
2023-02-02T10:30:46.429Z,99482.91
2023-02-02T10:33:34.679Z,99496.50
2023-02-02T10:36:18.509Z,99498.75
2023-02-02T10:38:55.280Z,99506.13
2023-02-02T10:41:32.869Z,99493.88
2023-02-02T10:44:13.408Z,99503.56
2023-02-02T10:46:46.513Z,99475.56
2023-02-02T10:49:27.387Z,99482.81
2023-02-02T10:52:06.578Z,99496.69
2023-02-02T10:54:56.365Z,99423.59
2023-02-02T10:57:48.769Z,99495.34
2023-02-02T11:00:23.881Z,99494.34
2023-02-02T11:02:54.610Z,99483.69
2023-02-02T11:05:45.175Z,99461.59
2023-02-02T11:08:20.221Z,99479.09
2023-02-02T11:10:54.416Z,99495.19
2023-02-02T11:13:30.396Z,99498.44
2023-02-02T11:16:21.610Z,99500.59
2023-02-02T11:18:51.203Z,99501.13
2023-02-02T11:21:24.614Z,99504.47
2023-02-02T11:23:56.181Z,99493.16
2023-02-02T11:26:26.756Z,99509.66
2023-02-02T11:28:59.853Z,99522.50
2023-02-02T11:31:34.818Z,99488.47
2023-02-02T11:34:18.271Z,99494.63
2023-02-02T11:37:11.834Z,99487.44
2023-02-02T11:39:44.131Z,99489.59
2023-02-02T11:42:45.355Z,99488.91
2023-02-02T11:45:34.673Z,99434.00
2023-02-02T11:48:09.666Z,99478.31
2023-02-02T11:50:38.988Z,99485.56
2023-02-02T11:53:27.896Z,99455.22
2023-02-02T11:55:59.163Z,99491.28
2023-02-02T11:58:30.771Z,99490.06
2023-02-02T12:01:02.415Z,99481.56
2023-02-02T12:03:37.701Z,99499.91
2023-02-02T12:06:21.370Z,99494.47
2023-02-02T12:09:11.587Z,99433.19
2023-02-02T12:11:56.554Z,99481.13
2023-02-02T12:14:37.046Z,99493.72
2023-02-02T12:17:18.348Z,99465.84
2023-02-02T12:20:05.101Z,99498.50
2023-02-02T12:22:51.597Z,99490.34
2023-02-02T12:25:54.967Z,99484.84
2023-02-02T12:28:39.048Z,99494.41
2023-02-02T12:31:12.880Z,99502.31
2023-02-02T12:33:53.074Z,99494.00
2023-02-02T12:36:33.389Z,99504.47
2023-02-02T12:39:34.446Z,99508.28
2023-02-02T12:42:26.552Z,99480.59
2023-02-02T12:45:31.860Z,99513.91
2023-02-02T12:48:15.265Z,99518.19
2023-02-02T12:51:00.523Z,99498.97
2023-02-02T12:53:39.916Z,99516.84
2023-02-02T12:56:23.092Z,99527.25
2023-02-02T12:59:03.831Z,99515.59
2023-02-02T13:01:49.505Z,99507.72
2023-02-02T13:04:32.583Z,99520.13
2023-02-02T13:07:34.183Z,99503.09
2023-02-02T13:10:13.135Z,99520.81
2023-02-02T13:12:46.295Z,99518.28
2023-02-02T13:15:23.885Z,99509.94
2023-02-02T13:17:56.957Z,99497.06
2023-02-02T13:20:38.355Z,99504.31
2023-02-02T13:23:14.025Z,99526.72
2023-02-02T13:25:48.868Z,99514.34
2023-02-02T13:28:29.659Z,99511.34
2023-02-02T13:31:06.353Z,99514.94
2023-02-02T13:33:38.237Z,99525.75
2023-02-02T13:36:15.833Z,99528.13
2023-02-02T13:38:46.245Z,99493.56
2023-02-02T13:41:18.644Z,99523.38
2023-02-02T13:43:56.047Z,99519.50
2023-02-02T13:46:34.723Z,99510.56
2023-02-02T13:49:13.489Z,99502.53
2023-02-02T13:51:58.387Z,99515.25
2023-02-02T13:55:10.199Z,99521.84
2023-02-02T13:58:13.442Z,99528.47
2023-02-02T14:00:47.746Z,99533.44
2023-02-02T14:03:32.395Z,99536.91
2023-02-02T14:06:09.065Z,99544.03
2023-02-02T14:08:38.987Z,99548.03
2023-02-02T14:11:10.025Z,99521.69
2023-02-02T14:14:04.194Z,99549.28
2023-02-02T14:16:52.197Z,99548.13
2023-02-02T14:19:55.917Z,99547.75
2023-02-02T14:22:45.822Z,99503.97
2023-02-02T14:25:53.737Z,99551.91
2023-02-02T14:28:56.441Z,99514.72
2023-02-02T14:31:49.321Z,99546.31
2023-02-02T14:34:36.021Z,99529.09
2023-02-02T14:37:40.235Z,99551.22
2023-02-02T14:40:26.981Z,99550.25
2023-02-02T14:43:26.495Z,99554.03
2023-02-02T14:46:23.942Z,99542.75
2023-02-02T14:49:13.527Z,99545.72
2023-02-02T14:51:53.465Z,99551.84
2023-02-02T14:54:28.624Z,99550.47
2023-02-02T14:57:01.775Z,99519.06
2023-02-02T14:59:36.207Z,99539.03
2023-02-02T15:02:16.509Z,99565.94
2023-02-02T15:04:47.952Z,99578.84
2023-02-02T15:07:52.507Z,99576.47
2023-02-02T15:10:55.072Z,99585.97
2023-02-02T15:13:37.797Z,99581.34
2023-02-02T15:16:15.930Z,99570.63
2023-02-02T15:18:50.631Z,99580.69
2023-02-02T15:21:23.874Z,99581.28
2023-02-02T15:23:53.366Z,99601.56
2023-02-02T15:26:27.187Z,99617.00
2023-02-02T15:29:00.716Z,99615.69
2023-02-02T15:31:35.375Z,99612.22
2023-02-02T15:34:12.697Z,99544.66
2023-02-02T15:36:46.768Z,99621.50
2023-02-02T15:39:27.246Z,99619.88
2023-02-02T15:42:11.291Z,99612.66
2023-02-02T15:44:42.011Z,99606.91
2023-02-02T15:47:17.412Z,99638.56
2023-02-02T15:49:46.610Z,99629.88
2023-02-02T15:52:20.452Z,99619.34
2023-02-02T15:54:54.726Z,99626.69
2023-02-02T15:57:29.603Z,99625.47
2023-02-02T16:00:01.722Z,99595.88
2023-02-02T16:02:38.891Z,99639.59
2023-02-02T16:05:27.391Z,99634.50
2023-02-02T16:08:05.656Z,99630.84
2023-02-02T16:10:36.701Z,99631.03
2023-02-02T16:13:05.940Z,99632.44
2023-02-02T16:15:36.491Z,99568.16
2023-02-02T16:18:07.986Z,99635.97
2023-02-02T16:20:39.611Z,99619.41
2023-02-02T19:27:57.804Z,99750.63
2023-02-02T19:30:28.556Z,99743.22
2023-02-02T19:32:59.084Z,99751.19
2023-02-02T19:35:32.236Z,99759.38
2023-02-02T19:38:03.961Z,99759.03
2023-02-02T19:40:35.832Z,99763.31
2023-02-02T19:43:33.350Z,99737.19
2023-02-02T19:46:02.858Z,99755.84
2023-02-02T19:48:36.750Z,99765.28
2023-02-02T19:51:37.594Z,99754.09
2023-02-02T19:54:23.755Z,99766.91
2023-02-02T19:56:57.235Z,99766.56
2023-02-02T19:59:34.519Z,99760.84
2023-02-02T20:02:42.223Z,99753.00
2023-02-02T20:05:19.986Z,99760.47
2023-02-02T20:07:53.649Z,99738.13
2023-02-02T20:10:28.890Z,99766.31
2023-02-02T20:12:59.671Z,99774.38
2023-02-02T20:15:52.672Z,99747.41
2023-02-02T20:18:24.747Z,99739.69
2023-02-02T20:20:56.618Z,99754.59
2023-02-02T20:23:37.978Z,99779.13
2023-02-02T20:26:18.197Z,99719.41
2023-02-02T20:28:48.662Z,99765.16
2023-02-02T20:31:22.152Z,99783.84
2023-02-02T20:33:54.141Z,99777.81
2023-02-02T20:36:36.999Z,99763.78
2023-02-02T20:39:27.381Z,99753.28
2023-02-02T20:41:58.895Z,99780.22
2023-02-02T20:44:29.446Z,99786.47
2023-02-02T20:47:00.912Z,99780.16
2023-02-02T20:49:32.177Z,99790.84
2023-02-02T20:52:05.288Z,99783.56
2023-02-02T20:54:36.088Z,99770.53
2023-02-02T20:57:06.919Z,99765.94
2023-02-02T20:59:37.123Z,99793.44
2023-02-02T21:02:09.105Z,99798.56
2023-02-02T21:04:39.409Z,99767.94
2023-02-02T21:07:09.930Z,99765.91
2023-02-02T21:09:40.351Z,99781.72
2023-02-02T21:12:10.195Z,99798.31
2023-02-02T21:14:40.532Z,99788.06
2023-02-02T21:17:15.266Z,99800.47
2023-02-02T21:19:49.856Z,99802.75
2023-02-02T21:22:19.767Z,99808.00
2023-02-02T21:24:49.913Z,99782.78
2023-02-02T21:27:20.296Z,99776.13
2023-02-02T21:29:50.615Z,99795.81
2023-02-02T21:32:21.471Z,99812.63
2023-02-02T21:34:51.443Z,99762.63
2023-02-02T21:37:21.237Z,99814.84
2023-02-02T21:39:51.909Z,99814.03
2023-02-02T21:42:22.864Z,99786.75
2023-02-02T21:44:56.527Z,99824.47
2023-02-02T21:47:35.089Z,99823.66
2023-02-02T21:50:16.057Z,99814.25
2023-02-02T21:52:45.990Z,99825.47
2023-02-02T21:55:34.336Z,99837.75
2023-02-02T21:58:16.307Z,99775.94
2023-02-02T22:00:46.560Z,99840.34
2023-02-02T22:03:34.449Z,99829.28
2023-02-02T22:06:22.594Z,99828.56
2023-02-02T22:08:53.265Z,99850.59
2023-02-02T22:11:29.716Z,99836.88
2023-02-02T22:14:04.730Z,99792.75
2023-02-02T22:16:39.966Z,99818.94
2023-02-02T22:19:26.278Z,99814.38
2023-02-02T22:22:11.092Z,99759.00
2023-02-02T22:24:40.975Z,99840.06
2023-02-02T22:27:38.512Z,99839.25
2023-02-02T22:30:21.816Z,99850.63
2023-02-02T22:32:51.805Z,99843.69
2023-02-02T22:35:29.762Z,99864.97
2023-02-02T22:37:59.669Z,99820.03
2023-02-02T22:40:29.525Z,99870.97
2023-02-02T22:43:01.091Z,99835.72
2023-02-02T22:45:31.358Z,99864.00
2023-02-02T22:48:01.225Z,99876.31
2023-02-02T22:50:35.082Z,99871.13
2023-02-02T22:53:05.929Z,99866.66
2023-02-02T22:55:35.659Z,99869.59
2023-02-02T22:58:05.368Z,99857.59
2023-02-02T23:00:35.196Z,99879.59
2023-02-02T23:03:05.323Z,99785.88
2023-02-02T23:05:36.727Z,99875.53
2023-02-02T23:08:06.426Z,99869.16
2023-02-02T23:10:36.268Z,99867.59
2023-02-02T23:13:06.682Z,99860.09
2023-02-02T23:15:36.747Z,99852.69
2023-02-02T23:18:06.566Z,99854.56
2023-02-02T23:20:37.198Z,99854.53
2023-02-02T23:23:06.800Z,99881.59
2023-02-02T23:25:36.997Z,99882.13
2023-02-02T23:28:09.958Z,99825.28
2023-02-02T23:30:39.566Z,99874.81
2023-02-02T23:33:09.261Z,99854.91
2023-02-02T23:35:40.032Z,99876.94
2023-02-02T23:38:09.546Z,99881.84
2023-02-02T23:40:39.139Z,99884.84
2023-02-02T23:43:08.928Z,99883.63
2023-02-02T23:45:43.827Z,99881.16
2023-02-02T23:48:18.789Z,99889.34
2023-02-02T23:50:49.527Z,99886.19
2023-02-02T23:53:23.701Z,99885.66
2023-02-02T23:55:59.278Z,99882.38
2023-02-02T23:58:32.580Z,99890.28
